createdAt,value
2023-02-20T00:02:22.456Z,100.00
2023-02-20T00:04:50.864Z,100.00
2023-02-20T00:07:19.232Z,100.00
2023-02-20T00:09:47.661Z,100.00
2023-02-20T00:12:16.126Z,100.00
2023-02-20T00:14:45.528Z,100.00
2023-02-20T00:17:13.963Z,100.00
2023-02-20T00:19:42.246Z,100.00
2023-02-20T00:22:10.564Z,100.00
2023-02-20T00:24:38.934Z,100.00
2023-02-20T00:27:07.237Z,100.00
2023-02-20T00:29:35.579Z,100.00
2023-02-20T00:32:04.199Z,100.00
2023-02-20T00:34:33.776Z,100.00
2023-02-20T00:37:02.083Z,100.00
2023-02-20T00:39:32.213Z,100.00
2023-02-20T00:42:00.591Z,100.00
2023-02-20T00:44:28.861Z,100.00
2023-02-20T00:46:57.267Z,100.00
2023-02-20T00:49:25.622Z,100.00
2023-02-20T00:51:54.275Z,100.00
2023-02-20T00:54:22.788Z,100.00
2023-02-20T00:56:51.184Z,100.00
2023-02-20T00:59:19.545Z,100.00
2023-02-20T01:01:49.163Z,100.00
2023-02-20T01:04:17.647Z,100.00
2023-02-20T01:06:46.026Z,100.00
2023-02-20T01:09:15.157Z,99.94
2023-02-20T01:11:44.998Z,99.82
2023-02-20T01:14:14.424Z,99.44
2023-02-20T01:16:51.575Z,99.49
2023-02-20T01:19:23.071Z,99.46
2023-02-20T01:21:52.083Z,99.32
2023-02-20T01:24:20.659Z,99.32
2023-02-20T01:26:50.120Z,98.97
2023-02-20T01:29:18.817Z,98.94
2023-02-20T01:31:49.794Z,99.01
2023-02-20T01:34:20.322Z,99.01
2023-02-20T01:36:51.606Z,98.93
2023-02-20T01:39:22.281Z,99.00
2023-02-20T01:41:55.589Z,98.96
2023-02-20T01:44:28.365Z,99.07
2023-02-20T01:46:58.755Z,98.82
2023-02-20T01:49:35.684Z,98.85
2023-02-20T01:52:07.553Z,98.37
2023-02-20T01:54:39.135Z,98.16
2023-02-20T01:57:12.497Z,98.18
2023-02-20T01:59:42.818Z,97.92
2023-02-20T02:02:12.055Z,98.02
2023-02-20T02:04:44.040Z,97.95
2023-02-20T02:07:13.017Z,97.90
2023-02-20T02:09:51.833Z,97.83
2023-02-20T02:12:21.593Z,97.74
2023-02-20T02:14:50.099Z,97.85
2023-02-20T02:17:21.373Z,97.95
2023-02-20T02:19:49.669Z,97.87
2023-02-20T02:22:55.090Z,97.90
2023-02-20T02:25:23.368Z,97.93
2023-02-20T02:28:18.864Z,98.10
2023-02-20T02:31:06.247Z,98.24
2023-02-20T02:34:12.889Z,98.21
2023-02-20T02:36:50.515Z,98.26
2023-02-20T02:39:30.359Z,98.24
2023-02-20T02:42:17.655Z,98.23
2023-02-20T02:45:04.453Z,98.30
2023-02-20T02:47:46.390Z,98.34
2023-02-20T02:50:27.398Z,98.42
2023-02-20T02:52:57.494Z,98.47
2023-02-20T02:55:34.020Z,98.52
2023-02-20T02:58:04.472Z,98.57
2023-02-20T03:00:40.032Z,98.61
2023-02-20T03:03:26.899Z,98.63
2023-02-20T03:06:01.013Z,98.57
2023-02-20T03:08:44.352Z,98.68
2023-02-20T03:11:20.809Z,98.66
2023-02-20T03:14:15.634Z,98.66
2023-02-20T03:16:48.588Z,98.54
2023-02-20T03:19:26.261Z,98.46
2023-02-20T03:21:57.806Z,98.40
2023-02-20T03:24:29.067Z,98.35
2023-02-20T03:27:01.221Z,98.23
2023-02-20T03:29:37.868Z,98.30
2023-02-20T03:32:30.639Z,98.21
2023-02-20T03:35:21.900Z,98.11
2023-02-20T03:38:10.728Z,98.02
2023-02-20T03:40:59.258Z,97.96
2023-02-20T03:43:33.340Z,97.84
2023-02-20T03:46:12.075Z,97.87
2023-02-20T03:48:51.168Z,97.89
2023-02-20T03:51:22.156Z,97.70
2023-02-20T03:54:16.603Z,97.81
2023-02-20T03:56:53.268Z,97.74
2023-02-20T03:59:46.601Z,97.80
2023-02-20T04:02:26.179Z,97.75
2023-02-20T04:04:59.718Z,97.74
2023-02-20T04:07:36.589Z,97.52
2023-02-20T04:10:10.320Z,97.48
2023-02-20T04:12:43.199Z,97.37
2023-02-20T04:15:13.102Z,97.28
2023-02-20T04:18:03.299Z,97.07
2023-02-20T04:20:32.808Z,97.21
2023-02-20T04:23:15.547Z,97.08
2023-02-20T04:25:49.939Z,97.01
2023-02-20T04:28:19.772Z,97.05
2023-02-20T04:30:59.835Z,97.04
2023-02-20T04:33:28.295Z,96.89
2023-02-20T04:36:01.045Z,96.89
2023-02-20T04:38:29.475Z,96.65
2023-02-20T04:40:58.360Z,96.74
2023-02-20T04:43:26.793Z,96.65
2023-02-20T04:45:55.908Z,96.70
2023-02-20T04:48:24.390Z,96.59
2023-02-20T04:50:53.893Z,96.46
2023-02-20T04:53:22.416Z,96.54
2023-02-20T04:55:50.902Z,96.41
2023-02-20T04:58:21.187Z,96.26
2023-02-20T05:01:12.517Z,96.22
2023-02-20T05:03:40.848Z,96.30
2023-02-20T05:06:09.265Z,96.13
2023-02-20T05:08:37.827Z,96.11
2023-02-20T05:11:06.139Z,96.17
2023-02-20T05:13:34.495Z,96.17
2023-02-20T05:16:03.070Z,96.09
2023-02-20T05:18:31.529Z,95.97
2023-02-20T05:21:18.934Z,96.06
2023-02-20T05:23:47.573Z,96.16
2023-02-20T05:26:22.249Z,96.13
2023-02-20T05:28:50.695Z,96.16
2023-02-20T05:31:19.354Z,96.15
2023-02-20T05:33:47.998Z,96.31
2023-02-20T05:36:17.459Z,96.28
2023-02-20T05:38:49.222Z,96.27
2023-02-20T05:41:19.636Z,96.43
2023-02-20T05:43:48.981Z,96.54
2023-02-20T05:46:18.162Z,96.44
2023-02-20T05:48:50.620Z,96.52
2023-02-20T05:51:27.702Z,96.56
2023-02-20T05:53:56.679Z,96.66
2023-02-20T05:56:25.528Z,96.56
2023-02-20T05:58:53.924Z,96.67
2023-02-20T06:01:29.091Z,96.62
2023-02-20T06:03:57.749Z,96.43
2023-02-20T06:06:33.991Z,96.47
2023-02-20T06:09:02.874Z,96.59
2023-02-20T06:11:31.139Z,96.66
2023-02-20T06:13:59.482Z,96.64
2023-02-20T06:16:30.411Z,96.50
2023-02-20T06:19:02.780Z,96.63
2023-02-20T06:21:36.217Z,96.68
2023-02-20T06:24:04.835Z,96.62
2023-02-20T06:26:33.159Z,96.74
2023-02-20T06:29:01.501Z,96.86
2023-02-20T06:31:29.944Z,96.96
2023-02-20T06:33:58.471Z,96.89
2023-02-20T06:36:30.626Z,96.69
2023-02-20T06:38:59.415Z,96.80
2023-02-20T06:41:27.887Z,96.50
2023-02-20T06:43:56.521Z,96.58
2023-02-20T06:46:25.515Z,96.21
2023-02-20T06:48:58.136Z,96.01
2023-02-20T06:51:30.919Z,95.82
2023-02-20T06:54:01.032Z,95.73
2023-02-20T06:56:32.828Z,95.63
2023-02-20T06:59:04.425Z,95.25
2023-02-20T07:01:40.402Z,95.01
2023-02-20T07:04:17.772Z,94.73
2023-02-20T07:06:47.439Z,94.24
2023-02-20T07:09:16.581Z,93.78
2023-02-20T07:11:44.995Z,93.63
2023-02-20T07:14:14.105Z,93.59
2023-02-20T07:16:42.472Z,93.12
2023-02-20T07:19:10.829Z,92.81
2023-02-20T07:21:39.468Z,92.25
2023-02-20T07:24:08.490Z,91.81
2023-02-20T07:26:39.642Z,91.69
2023-02-20T07:29:08.430Z,91.95
2023-02-20T07:31:39.271Z,91.67
2023-02-20T07:34:08.497Z,91.17
2023-02-20T07:36:38.402Z,91.12
2023-02-20T07:39:06.918Z,90.89
2023-02-20T07:41:36.260Z,90.65
2023-02-20T07:44:15.019Z,90.65
2023-02-20T07:46:43.529Z,89.93
2023-02-20T07:49:11.902Z,90.02
2023-02-20T07:51:40.235Z,89.34
2023-02-20T07:54:08.640Z,88.82
2023-02-20T07:56:36.936Z,88.57
2023-02-20T07:59:05.484Z,88.20
2023-02-20T08:01:33.895Z,87.92
2023-02-20T08:04:02.385Z,86.88
2023-02-20T08:06:30.820Z,86.36
2023-02-20T08:08:59.373Z,86.24
2023-02-20T08:11:27.932Z,86.02
2023-02-20T08:13:56.284Z,86.13
2023-02-20T08:16:27.139Z,85.17
2023-02-20T08:18:55.623Z,84.44
2023-02-20T08:21:24.019Z,83.95
2023-02-20T08:23:52.841Z,82.14
2023-02-20T08:26:21.360Z,81.93
2023-02-20T08:28:50.707Z,82.32
2023-02-20T08:31:31.350Z,82.74
2023-02-20T08:34:00.615Z,81.42
2023-02-20T08:36:29.408Z,79.32
2023-02-20T08:38:57.971Z,78.59
2023-02-20T08:41:26.660Z,78.57
2023-02-20T08:43:55.237Z,77.79
2023-02-20T08:46:23.600Z,76.64
2023-02-20T08:48:51.949Z,75.68
2023-02-20T08:51:22.099Z,74.59
2023-02-20T08:53:50.591Z,72.93
2023-02-20T08:56:20.237Z,73.59
2023-02-20T08:58:48.608Z,73.42
2023-02-20T09:01:16.922Z,73.86
2023-02-20T09:03:45.299Z,71.89
2023-02-20T09:06:14.469Z,71.11
2023-02-20T09:08:44.150Z,70.80
2023-02-20T09:11:12.553Z,70.15
2023-02-20T09:13:45.856Z,69.58
2023-02-20T09:16:19.043Z,70.16
2023-02-20T09:18:48.349Z,70.74
2023-02-20T09:21:20.006Z,71.74
2023-02-20T09:23:48.970Z,70.93
2023-02-20T09:26:17.384Z,72.62
2023-02-20T09:28:45.644Z,72.51
2023-02-20T09:31:14.256Z,71.39
2023-02-20T09:33:51.144Z,72.42
2023-02-20T09:36:20.152Z,72.03
2023-02-20T09:38:48.664Z,72.77
2023-02-20T09:41:49.247Z,74.05
2023-02-20T09:44:20.592Z,73.84
2023-02-20T09:46:51.055Z,72.75
2023-02-20T09:49:25.942Z,74.19
2023-02-20T09:51:59.477Z,73.66
2023-02-20T09:54:40.392Z,74.10
2023-02-20T09:57:17.042Z,75.47
2023-02-20T09:59:52.893Z,75.43
2023-02-20T10:02:27.453Z,75.17
2023-02-20T10:05:04.743Z,74.45
2023-02-20T10:07:37.022Z,74.91
2023-02-20T10:10:17.350Z,74.70
2023-02-20T10:13:08.205Z,75.16
2023-02-20T10:15:59.879Z,75.30
2023-02-20T10:18:46.376Z,75.84
2023-02-20T10:21:45.120Z,75.95
2023-02-20T10:24:53.647Z,76.29
2023-02-20T10:27:31.307Z,75.93
2023-02-20T10:30:02.658Z,75.35
2023-02-20T10:32:45.450Z,76.72
2023-02-20T10:35:21.669Z,75.83
2023-02-20T10:37:56.522Z,76.21
2023-02-20T10:40:24.877Z,77.13
2023-02-20T10:43:20.734Z,78.14
2023-02-20T10:46:00.307Z,77.49
2023-02-20T10:48:32.568Z,78.25
2023-02-20T10:51:09.326Z,77.93
2023-02-20T10:53:40.800Z,77.74
2023-02-20T10:56:13.086Z,78.30
2023-02-20T10:58:59.759Z,78.46
2023-02-20T11:01:28.606Z,78.83
2023-02-20T11:04:06.259Z,78.92
2023-02-20T11:07:02.334Z,79.40
2023-02-20T11:09:31.341Z,79.83
2023-02-20T11:12:00.613Z,80.15
2023-02-20T11:14:40.142Z,81.02
2023-02-20T11:17:16.242Z,80.69
2023-02-20T11:19:51.245Z,80.60
2023-02-20T11:22:37.920Z,80.91
2023-02-20T11:25:34.342Z,80.59
2023-02-20T11:28:26.576Z,80.95
2023-02-20T11:31:03.564Z,80.44
2023-02-20T11:33:37.491Z,79.41
2023-02-20T11:36:28.347Z,79.33
2023-02-20T11:39:00.318Z,78.19
2023-02-20T11:41:33.647Z,77.53
2023-02-20T11:44:14.682Z,79.10
2023-02-20T11:46:44.140Z,78.57
2023-02-20T11:49:25.569Z,78.54
2023-02-20T11:52:08.850Z,78.09
2023-02-20T11:54:38.703Z,78.04
2023-02-20T11:57:25.586Z,78.39
2023-02-20T12:00:20.121Z,78.78
2023-02-20T12:03:08.716Z,79.82
2023-02-20T12:05:41.896Z,79.95
2023-02-20T12:08:38.747Z,79.77
2023-02-20T12:11:19.664Z,79.77
2023-02-20T12:13:50.560Z,79.71
2023-02-20T12:16:39.212Z,79.39
2023-02-20T12:19:14.228Z,79.37
2023-02-20T12:21:54.940Z,79.76
2023-02-20T12:25:01.610Z,79.92
2023-02-20T12:27:48.927Z,79.84
2023-02-20T12:30:25.737Z,79.74
2023-02-20T12:33:06.342Z,80.31
2023-02-20T12:35:39.960Z,80.04
2023-02-20T12:38:15.419Z,79.72
2023-02-20T12:41:02.288Z,80.33
2023-02-20T12:43:40.149Z,80.46
2023-02-20T12:46:23.755Z,79.93
2023-02-20T12:49:10.215Z,80.50
2023-02-20T12:51:42.147Z,79.80
2023-02-20T12:54:19.698Z,78.72
2023-02-20T12:56:53.721Z,78.35
2023-02-20T12:59:26.191Z,78.66
2023-02-20T13:01:55.888Z,78.71
2023-02-20T13:04:46.091Z,78.66
2023-02-20T13:07:22.384Z,78.66
2023-02-20T13:10:04.788Z,78.69
2023-02-20T13:12:33.190Z,78.76
2023-02-20T13:15:35.593Z,77.96
2023-02-20T13:18:06.985Z,78.68
2023-02-20T13:21:12.664Z,78.08
2023-02-20T13:23:42.280Z,77.31
2023-02-20T13:26:32.809Z,76.73
2023-02-20T13:29:14.894Z,76.99
2023-02-20T13:31:50.016Z,76.40
2023-02-20T13:34:18.357Z,76.68
2023-02-20T13:36:50.887Z,77.59
2023-02-20T13:39:19.309Z,77.27
2023-02-20T13:41:54.045Z,77.12
2023-02-20T13:44:38.761Z,77.34
2023-02-20T13:47:27.027Z,77.69
2023-02-20T13:50:00.052Z,78.74
2023-02-20T13:52:35.456Z,78.48
2023-02-20T13:55:17.902Z,78.03
2023-02-20T13:57:54.919Z,78.01
2023-02-20T14:01:01.726Z,77.93
2023-02-20T14:03:34.767Z,78.06
2023-02-20T14:06:06.339Z,77.31
2023-02-20T14:08:37.353Z,76.90
2023-02-20T14:11:33.580Z,77.18
2023-02-20T14:14:33.597Z,76.94
2023-02-20T14:17:08.407Z,75.97
2023-02-20T14:19:42.499Z,76.57
2023-02-20T14:22:23.822Z,75.88
2023-02-20T14:25:17.449Z,76.52
2023-02-20T14:27:49.410Z,76.31
2023-02-20T14:30:26.235Z,76.55
2023-02-20T14:32:56.790Z,75.66
2023-02-20T14:35:49.459Z,75.66
2023-02-20T14:39:06.279Z,75.75
2023-02-20T14:41:34.768Z,75.66
2023-02-20T14:44:06.735Z,76.19
2023-02-20T14:46:37.467Z,75.97
2023-02-20T14:49:10.423Z,76.12
2023-02-20T14:51:39.110Z,76.23
2023-02-20T14:54:27.686Z,75.78
2023-02-20T14:56:56.155Z,76.70
2023-02-20T14:59:29.301Z,77.12
2023-02-20T15:02:01.656Z,77.07
2023-02-20T15:04:31.053Z,76.90
2023-02-20T15:07:06.516Z,76.83
2023-02-20T15:09:44.235Z,76.84
2023-02-20T15:12:22.788Z,76.67
2023-02-20T15:15:18.012Z,76.87
2023-02-20T15:17:46.467Z,76.94
2023-02-20T15:20:39.182Z,76.47
2023-02-20T15:23:18.747Z,76.49
2023-02-20T15:25:47.596Z,76.70
2023-02-20T15:28:18.845Z,76.68
2023-02-20T15:31:07.215Z,76.53
2023-02-20T15:33:47.610Z,76.63
2023-02-20T15:36:21.208Z,76.56
2023-02-20T15:38:55.942Z,76.53
2023-02-20T15:41:24.505Z,76.54
2023-02-20T15:43:53.008Z,76.34
2023-02-20T15:46:21.509Z,76.62
2023-02-20T15:48:49.890Z,76.52
2023-02-20T15:51:22.164Z,76.92
2023-02-20T15:53:53.862Z,76.97
2023-02-20T15:56:22.485Z,76.81
2023-02-20T15:58:51.507Z,76.30
2023-02-20T16:01:19.998Z,76.66
2023-02-20T16:03:52.837Z,76.35
2023-02-20T16:06:23.559Z,77.08
2023-02-20T16:08:53.463Z,76.68
2023-02-20T16:11:25.812Z,76.69
2023-02-20T16:14:01.143Z,77.17
2023-02-20T16:16:39.163Z,77.27
2023-02-20T16:19:15.747Z,77.31
2023-02-20T16:21:56.896Z,77.55
2023-02-20T16:24:27.489Z,77.48
2023-02-20T16:26:56.020Z,77.43
2023-02-20T16:29:34.642Z,77.83
2023-02-20T16:32:03.200Z,77.86
2023-02-20T16:34:34.042Z,77.83
2023-02-20T16:37:03.413Z,78.03
2023-02-20T16:39:31.764Z,77.73
2023-02-20T16:42:01.483Z,77.17
2023-02-20T16:44:41.765Z,77.60
2023-02-20T16:47:16.997Z,77.67
2023-02-20T16:49:49.159Z,77.59
2023-02-20T16:52:22.099Z,77.30
2023-02-20T16:54:50.750Z,77.61
2023-02-20T16:57:19.221Z,77.45
2023-02-20T16:59:47.575Z,77.64
2023-02-20T17:02:19.691Z,77.63
2023-02-20T17:04:48.941Z,78.18
2023-02-20T17:07:18.922Z,78.04
2023-02-20T17:10:13.102Z,77.89
2023-02-20T17:12:41.658Z,78.02
2023-02-20T17:15:13.299Z,77.95
2023-02-20T17:17:42.492Z,77.44
2023-02-20T17:20:18.632Z,77.07
2023-02-20T17:23:02.732Z,77.17
2023-02-20T17:25:35.113Z,77.03
2023-02-20T17:28:05.705Z,77.35
2023-02-20T17:30:34.227Z,77.43
2023-02-20T17:33:02.681Z,77.15
2023-02-20T17:35:31.091Z,77.29
2023-02-20T17:37:59.586Z,77.09
2023-02-20T17:40:28.011Z,77.08
2023-02-20T17:42:56.944Z,77.28
2023-02-20T17:45:25.282Z,77.70
2023-02-20T17:47:53.643Z,78.03
2023-02-20T17:50:22.233Z,77.89
2023-02-20T17:52:54.863Z,77.42
2023-02-20T17:55:27.130Z,78.11
2023-02-20T17:57:55.506Z,77.89
2023-02-20T18:00:24.179Z,77.96
2023-02-20T18:02:52.550Z,78.03
2023-02-20T18:05:21.001Z,77.93
2023-02-20T18:07:49.432Z,78.15
2023-02-20T18:10:21.492Z,78.54
2023-02-20T18:13:02.914Z,78.42
2023-02-20T18:15:33.626Z,77.90
2023-02-20T18:18:03.353Z,77.77
2023-02-20T18:20:31.874Z,77.59
2023-02-20T18:23:01.301Z,77.49
2023-02-20T18:25:39.941Z,77.91
2023-02-20T18:28:10.229Z,78.20
2023-02-20T18:30:39.675Z,77.85
2023-02-20T18:33:08.675Z,77.77
2023-02-20T18:35:37.565Z,77.93
2023-02-20T18:38:06.648Z,77.57
2023-02-20T18:40:35.732Z,77.58
2023-02-20T18:43:04.176Z,77.76
2023-02-20T18:45:32.664Z,77.64
2023-02-20T18:48:01.101Z,77.57
2023-02-20T18:50:29.436Z,77.84
2023-02-20T18:52:58.350Z,77.54
2023-02-20T18:55:26.810Z,77.69
2023-02-20T18:57:58.000Z,77.98
2023-02-20T19:00:30.586Z,77.91
2023-02-20T19:03:01.280Z,77.26
2023-02-20T19:05:29.966Z,77.28
2023-02-20T19:07:58.946Z,76.81
2023-02-20T19:10:28.005Z,76.63
2023-02-20T19:12:57.021Z,77.29
2023-02-20T19:15:26.132Z,76.66
2023-02-20T19:17:54.816Z,76.20
2023-02-20T19:20:29.479Z,75.89
2023-02-20T19:22:59.226Z,74.57
2023-02-20T19:25:27.809Z,74.57
2023-02-20T19:27:56.593Z,73.71
2023-02-20T19:30:25.081Z,73.84
2023-02-20T19:32:53.677Z,73.03
2023-02-20T19:35:22.207Z,72.78
2023-02-20T19:37:50.701Z,72.05
2023-02-20T19:40:20.739Z,71.92
2023-02-20T19:43:20.928Z,72.13
2023-02-20T19:45:56.353Z,71.70
2023-02-20T19:48:37.424Z,72.04
2023-02-20T19:51:08.788Z,71.72
2023-02-20T19:53:37.191Z,71.78
2023-02-20T19:56:09.244Z,72.15
2023-02-20T19:58:42.539Z,72.48
2023-02-20T20:01:19.360Z,71.89
2023-02-20T20:03:51.412Z,71.54
2023-02-20T20:06:27.195Z,71.14
2023-02-20T20:09:11.329Z,71.00
2023-02-20T20:11:42.305Z,71.07
2023-02-20T20:14:10.777Z,71.78
2023-02-20T20:16:41.113Z,71.89
2023-02-20T20:19:11.102Z,72.46
2023-02-20T20:21:39.947Z,72.01
2023-02-20T20:24:13.293Z,71.77
2023-02-20T20:26:41.962Z,72.12
2023-02-20T20:29:10.627Z,71.99
2023-02-20T20:31:42.048Z,72.67
2023-02-20T20:34:36.388Z,72.79
2023-02-20T20:37:04.931Z,72.90
2023-02-20T20:39:33.532Z,73.00
2023-02-20T20:42:01.861Z,72.47
2023-02-20T20:44:30.336Z,72.55
2023-02-20T20:46:58.714Z,72.92
2023-02-20T20:49:27.360Z,73.08
2023-02-20T20:51:56.061Z,72.87
2023-02-20T20:54:24.693Z,73.08
2023-02-20T20:56:53.189Z,73.05
2023-02-20T20:59:21.736Z,73.51
2023-02-20T21:01:50.552Z,73.67
2023-02-20T21:04:19.132Z,73.58
2023-02-20T21:06:47.593Z,73.27
2023-02-20T21:09:16.190Z,73.49
2023-02-20T21:11:45.103Z,73.49
2023-02-20T21:14:13.974Z,73.08
2023-02-20T21:16:42.542Z,73.35
2023-02-20T21:19:15.790Z,73.54
2023-02-20T21:21:44.377Z,73.50
2023-02-20T21:24:13.453Z,73.32
2023-02-20T21:26:41.811Z,73.16
2023-02-20T21:29:10.761Z,73.17
2023-02-20T21:31:43.021Z,73.18
2023-02-20T21:34:13.400Z,73.41
2023-02-20T21:36:44.038Z,73.12
2023-02-20T21:39:12.589Z,72.68
2023-02-20T21:42:23.802Z,72.83
2023-02-20T21:44:53.263Z,72.81
2023-02-20T21:47:21.716Z,72.90
2023-02-20T21:49:50.118Z,72.61
2023-02-20T21:52:19.922Z,72.33
2023-02-20T21:54:50.421Z,72.31
2023-02-20T21:57:20.153Z,72.15
2023-02-20T21:59:48.532Z,72.38
2023-02-20T22:02:18.879Z,72.02
2023-02-20T22:04:47.418Z,71.74
2023-02-20T22:07:35.352Z,70.99
2023-02-20T22:10:23.381Z,71.11
2023-02-20T22:13:10.826Z,70.21
2023-02-20T22:16:00.100Z,69.97
2023-02-20T22:18:50.106Z,69.53
2023-02-20T22:21:39.756Z,69.82
2023-02-20T22:24:37.406Z,69.71
2023-02-20T22:27:29.045Z,69.89
2023-02-20T22:30:16.062Z,70.02
2023-02-20T22:33:04.424Z,70.16
2023-02-20T22:35:51.425Z,70.83
2023-02-20T22:38:38.821Z,71.25
2023-02-20T22:41:25.803Z,71.49
2023-02-20T22:44:13.139Z,71.67
2023-02-20T22:47:05.558Z,72.39
2023-02-20T22:50:01.469Z,71.91
2023-02-20T22:52:48.496Z,72.19
2023-02-20T22:55:35.539Z,72.16
2023-02-20T22:58:23.472Z,71.96
2023-02-20T23:01:10.731Z,71.89
2023-02-20T23:03:58.714Z,72.03
2023-02-20T23:06:46.279Z,72.49
2023-02-20T23:09:33.391Z,72.40
2023-02-20T23:12:20.743Z,72.54
2023-02-20T23:15:07.646Z,72.47
2023-02-20T23:17:54.832Z,72.13
2023-02-20T23:20:42.760Z,72.21
2023-02-20T23:23:32.203Z,71.97
2023-02-20T23:26:19.244Z,72.25
2023-02-20T23:29:06.515Z,72.84
2023-02-20T23:32:00.941Z,72.44
2023-02-20T23:34:49.789Z,72.35
2023-02-20T23:37:36.807Z,71.79
2023-02-20T23:40:35.931Z,72.00
2023-02-20T23:43:26.279Z,72.12
2023-02-20T23:46:13.799Z,72.44
2023-02-20T23:49:01.184Z,72.76
2023-02-20T23:51:50.755Z,72.66
2023-02-20T23:54:37.711Z,72.72
2023-02-20T23:57:25.508Z,72.92
